createdAt,value
2019-03-22T00:00:20.686Z,68.60
2019-03-22T00:02:50.303Z,68.13
2019-03-22T00:05:19.694Z,62.90
2019-03-22T00:07:49.199Z,60.50
2019-03-22T00:10:18.604Z,60.50
2019-03-22T00:12:48.007Z,54.80
2019-03-22T00:15:20.408Z,65.67
2019-03-22T00:17:50.812Z,62.27
2019-03-22T00:20:20.310Z,64.37
2019-03-22T00:22:49.831Z,59.23
2019-03-22T00:25:19.317Z,56.20
2019-03-22T00:27:48.720Z,51.63
2019-03-22T00:30:18.227Z,48.50
2019-03-22T00:32:47.636Z,55.40
2019-03-22T00:35:17.035Z,56.10
2019-03-22T00:37:46.543Z,53.93
2019-03-22T00:40:15.943Z,54.97
2019-03-22T00:42:45.361Z,45.30
2019-03-22T00:45:14.706Z,46.77
2019-03-22T00:47:43.910Z,51.77
2019-03-22T00:50:15.048Z,50.03
2019-03-22T00:52:44.305Z,43.70
2019-03-22T00:55:13.820Z,39.47
2019-03-22T00:57:43.023Z,45.10
2019-03-22T01:00:14.390Z,87.13
2019-03-22T01:02:43.523Z,52.03
2019-03-22T01:05:13.936Z,48.00
2019-03-22T01:07:43.190Z,48.97
2019-03-22T01:10:13.685Z,47.53
2019-03-22T01:12:42.900Z,45.87
2019-03-22T01:15:13.843Z,44.63
2019-03-22T01:17:43.463Z,41.20
2019-03-22T01:20:13.428Z,40.87
2019-03-22T01:22:42.678Z,37.40
2019-03-22T01:25:13.152Z,41.63
2019-03-22T01:27:42.364Z,42.60
2019-03-22T01:30:17.160Z,42.63
2019-03-22T01:32:46.368Z,41.33
2019-03-22T01:35:15.590Z,42.00
2019-03-22T01:37:44.880Z,37.80
2019-03-22T01:40:15.761Z,39.83
2019-03-22T01:42:44.970Z,40.97
2019-03-22T01:45:16.472Z,43.90
2019-03-22T01:47:45.686Z,43.10
2019-03-22T01:50:18.757Z,43.80
2019-03-22T01:52:48.004Z,42.80
2019-03-22T01:55:17.286Z,43.70
2019-03-22T01:57:53.298Z,37.37
2019-03-22T02:00:18.322Z,36.67
2019-03-22T02:02:47.533Z,37.57
2019-03-22T02:05:16.862Z,37.30
2019-03-22T02:07:46.098Z,32.63
2019-03-22T02:10:15.913Z,31.30
2019-03-22T02:12:45.345Z,37.70
2019-03-22T02:15:17.593Z,33.80
2019-03-22T02:17:46.995Z,41.90
2019-03-22T02:20:17.705Z,38.90
2019-03-22T02:22:47.147Z,37.60
2019-03-22T02:25:16.556Z,36.27
2019-03-22T02:27:45.758Z,35.53
2019-03-22T02:30:16.707Z,35.60
2019-03-22T02:32:45.946Z,34.73
2019-03-22T02:35:27.483Z,41.47
2019-03-22T02:37:46.195Z,35.83
2019-03-22T02:40:15.495Z,44.97
2019-03-22T02:42:44.674Z,52.70
2019-03-22T02:45:15.428Z,54.67
2019-03-22T02:47:44.644Z,51.87
2019-03-22T02:50:18.584Z,51.37
2019-03-22T02:52:46.090Z,44.13
2019-03-22T02:55:15.718Z,48.97
2019-03-22T02:57:44.923Z,42.00
2019-03-22T03:00:18.509Z,50.30
2019-03-22T03:02:47.724Z,47.13
2019-03-22T03:05:17.737Z,50.13
2019-03-22T03:07:46.971Z,48.33
2019-03-22T03:10:16.892Z,53.23
2019-03-22T03:12:46.098Z,41.23
2019-03-22T03:15:16.542Z,44.20
2019-03-22T03:17:45.749Z,38.00
2019-03-22T03:20:16.788Z,38.17
2019-03-22T03:22:46.015Z,42.57
2019-03-22T03:25:16.492Z,40.77
2019-03-22T03:27:45.691Z,36.30
2019-03-22T03:30:21.920Z,46.77
2019-03-22T03:32:51.332Z,55.73
2019-03-22T03:35:20.654Z,55.97
2019-03-22T03:37:49.910Z,54.57
2019-03-22T03:40:19.786Z,51.60
2019-03-22T03:42:48.981Z,58.33
2019-03-22T03:45:32.694Z,60.17
2019-03-22T03:48:03.320Z,54.30
2019-03-22T03:50:32.539Z,52.90
2019-03-22T03:53:01.818Z,53.60
2019-03-22T03:55:31.028Z,53.60
2019-03-22T03:58:00.230Z,51.30
2019-03-22T04:00:29.408Z,51.30
2019-03-22T04:02:58.627Z,52.17
2019-03-22T04:05:27.856Z,57.23
2019-03-22T04:07:57.101Z,58.50
2019-03-22T04:10:26.328Z,59.90
2019-03-22T04:12:56.514Z,58.97
2019-03-22T04:15:25.755Z,57.23
2019-03-22T04:17:54.892Z,54.47
2019-03-22T04:20:24.107Z,46.97
2019-03-22T04:22:53.351Z,47.77
2019-03-22T04:25:22.513Z,49.10
2019-03-22T04:27:51.727Z,42.67
2019-03-22T04:30:20.971Z,43.50
2019-03-22T04:32:50.133Z,45.90
2019-03-22T04:35:19.343Z,47.07
2019-03-22T04:37:48.576Z,48.93
2019-03-22T04:40:25.718Z,48.60
2019-03-22T04:42:55.032Z,49.70
2019-03-22T04:45:26.140Z,46.07
2019-03-22T04:48:13.234Z,42.47
2019-03-22T04:50:44.219Z,44.17
2019-03-22T04:53:16.352Z,46.57
2019-03-22T04:55:48.451Z,42.87
2019-03-22T04:58:19.770Z,43.07
2019-03-22T05:00:49.887Z,44.17
2019-03-22T05:03:20.705Z,48.73
2019-03-22T05:05:51.903Z,50.63
2019-03-22T05:08:22.809Z,50.00
2019-03-22T05:10:53.727Z,59.70
2019-03-22T05:13:23.741Z,51.70
2019-03-22T05:15:53.651Z,52.93
2019-03-22T05:18:24.197Z,51.77
2019-03-22T05:20:54.116Z,49.77
2019-03-22T05:23:25.236Z,54.53
2019-03-22T05:25:57.383Z,48.97
2019-03-22T05:28:28.886Z,49.47
2019-03-22T05:31:07.015Z,47.23
2019-03-22T05:33:36.169Z,54.70
2019-03-22T05:36:05.385Z,48.03
2019-03-22T05:38:34.553Z,45.23
2019-03-22T05:41:03.702Z,43.33
2019-03-22T05:43:32.903Z,49.60
2019-03-22T05:46:02.259Z,43.97
2019-03-22T05:48:31.474Z,44.83
2019-03-22T05:51:00.697Z,44.77
2019-03-22T05:53:29.888Z,40.30
2019-03-22T05:55:59.102Z,34.47
2019-03-22T05:58:28.316Z,44.90
2019-03-22T06:00:57.481Z,36.57
2019-03-22T06:03:26.566Z,45.83
2019-03-22T06:05:55.693Z,50.20
2019-03-22T06:08:24.938Z,49.07
2019-03-22T06:10:54.185Z,51.50
2019-03-22T06:13:23.257Z,54.53
2019-03-22T06:15:52.434Z,58.33
2019-03-22T06:18:21.571Z,56.73
2019-03-22T06:20:50.831Z,52.43
2019-03-22T06:23:20.007Z,49.83
2019-03-22T06:25:49.153Z,47.83
2019-03-22T06:28:18.289Z,44.47
2019-03-22T06:30:47.516Z,41.27
2019-03-22T06:33:16.606Z,41.67
2019-03-22T06:35:45.749Z,41.47
2019-03-22T06:38:14.876Z,41.57
2019-03-22T06:40:43.939Z,41.80
2019-03-22T06:43:12.999Z,39.70
2019-03-22T06:45:42.249Z,40.27
2019-03-22T06:48:11.390Z,41.43
2019-03-22T06:50:40.594Z,41.20
2019-03-22T06:53:09.848Z,41.10
2019-03-22T06:55:39.073Z,40.40
2019-03-22T06:58:08.227Z,40.63
2019-03-22T07:00:37.331Z,41.83
2019-03-22T07:03:06.597Z,39.57
2019-03-22T07:05:35.794Z,37.17
2019-03-22T07:08:04.969Z,35.43
2019-03-22T07:10:34.108Z,37.90
2019-03-22T07:13:03.248Z,39.00
2019-03-22T07:15:32.506Z,40.13
2019-03-22T07:18:01.651Z,40.50
2019-03-22T07:20:30.727Z,39.40
2019-03-22T07:22:59.989Z,39.27
2019-03-22T07:25:29.209Z,38.90
2019-03-22T07:27:58.494Z,40.27
2019-03-22T07:30:27.731Z,39.93
2019-03-22T07:32:56.952Z,40.17
2019-03-22T07:35:26.113Z,36.63
2019-03-22T07:37:55.335Z,37.10
2019-03-22T07:40:24.501Z,38.40
2019-03-22T07:42:53.732Z,36.30
2019-03-22T07:45:22.969Z,32.63
2019-03-22T07:47:52.195Z,33.10
2019-03-22T07:50:21.404Z,28.83
2019-03-22T07:52:50.646Z,30.17
2019-03-22T07:55:19.876Z,30.57
2019-03-22T07:57:49.080Z,32.90
2019-03-22T08:00:29.859Z,32.47
2019-03-22T08:02:49.335Z,35.53
2019-03-22T08:05:18.790Z,32.23
2019-03-22T08:07:48.021Z,32.90
2019-03-22T08:10:17.237Z,30.90
2019-03-22T08:12:46.417Z,34.70
2019-03-22T08:15:18.556Z,34.93
2019-03-22T08:17:47.766Z,33.80
2019-03-22T08:20:16.992Z,33.77
2019-03-22T08:22:46.170Z,31.50
2019-03-22T08:25:15.338Z,30.67
2019-03-22T08:27:44.419Z,31.43
2019-03-22T08:30:13.981Z,32.93
2019-03-22T08:32:43.012Z,30.60
2019-03-22T08:35:13.098Z,26.63
2019-03-22T08:37:52.092Z,27.07
2019-03-22T08:40:13.208Z,25.67
2019-03-22T08:42:42.422Z,28.43
2019-03-22T08:45:11.968Z,30.47
2019-03-22T08:47:41.235Z,29.87
2019-03-22T08:50:10.640Z,30.33
2019-03-22T08:52:39.951Z,27.77
2019-03-22T08:55:09.024Z,31.63
2019-03-22T08:57:38.293Z,32.43
2019-03-22T09:00:10.236Z,30.47
2019-03-22T09:02:39.460Z,30.23
2019-03-22T09:05:09.269Z,30.47
2019-03-22T09:07:38.817Z,33.40
2019-03-22T09:10:10.886Z,34.13
2019-03-22T09:12:40.126Z,37.67
2019-03-22T09:15:10.855Z,35.07
2019-03-22T09:17:39.997Z,44.90
2019-03-22T09:20:10.822Z,38.67
2019-03-22T09:22:40.028Z,37.90
2019-03-22T09:25:09.275Z,34.77
2019-03-22T09:27:38.601Z,35.10
2019-03-22T09:30:11.225Z,33.53
2019-03-22T09:32:40.517Z,32.77
2019-03-22T09:35:09.819Z,29.67
2019-03-22T09:37:39.088Z,31.13
2019-03-22T09:40:08.965Z,33.03
2019-03-22T09:42:38.247Z,30.47
2019-03-22T09:45:09.258Z,22.57
2019-03-22T09:47:38.561Z,30.37
2019-03-22T09:50:09.994Z,27.37
2019-03-22T09:52:39.515Z,26.93
2019-03-22T09:55:13.659Z,28.27
2019-03-22T09:57:40.266Z,29.20
2019-03-22T10:00:12.633Z,26.63
2019-03-22T10:02:41.876Z,24.63
2019-03-22T10:05:11.228Z,22.53
2019-03-22T10:07:40.550Z,25.37
2019-03-22T10:10:10.033Z,25.50
2019-03-22T10:12:39.325Z,25.43
2019-03-22T10:15:09.162Z,23.10
2019-03-22T10:17:38.633Z,23.03
2019-03-22T10:20:08.216Z,23.03
2019-03-22T10:22:37.667Z,22.97
2019-03-22T10:25:07.694Z,22.17
2019-03-22T10:27:36.969Z,23.93
2019-03-22T10:30:08.815Z,24.30
2019-03-22T10:32:38.029Z,24.27
2019-03-22T10:35:08.039Z,23.70
2019-03-22T10:37:37.267Z,22.27
2019-03-22T10:40:07.267Z,21.13
2019-03-22T10:42:36.470Z,21.93
2019-03-22T10:45:09.122Z,22.40
2019-03-22T10:47:38.419Z,21.70
2019-03-22T10:50:08.902Z,22.23
2019-03-22T10:52:38.224Z,20.43
2019-03-22T10:55:28.591Z,19.67
2019-03-22T10:57:41.185Z,18.47
2019-03-22T11:00:13.886Z,17.50
2019-03-22T11:02:43.102Z,18.33
2019-03-22T11:05:12.707Z,17.53
2019-03-22T11:07:41.970Z,17.60
2019-03-22T11:10:13.700Z,17.53
2019-03-22T11:12:42.970Z,18.03
2019-03-22T11:15:13.929Z,18.93
2019-03-22T11:17:43.265Z,17.20
2019-03-22T11:20:17.700Z,17.27
2019-03-22T11:22:46.944Z,18.20
2019-03-22T11:25:16.180Z,16.30
2019-03-22T11:27:45.401Z,16.67
2019-03-22T11:30:17.147Z,16.50
2019-03-22T11:32:46.358Z,16.00
2019-03-22T11:35:17.129Z,15.53
2019-03-22T11:37:46.468Z,15.23
2019-03-22T11:40:17.875Z,14.53
2019-03-22T11:42:47.089Z,14.50
2019-03-22T11:45:19.064Z,15.77
2019-03-22T11:47:48.478Z,14.73
2019-03-22T11:50:17.866Z,14.70
2019-03-22T11:52:48.302Z,13.83
2019-03-22T11:55:18.303Z,13.80
2019-03-22T11:57:48.054Z,14.30
2019-03-22T12:00:20.595Z,13.83
2019-03-22T12:02:50.190Z,14.27
2019-03-22T12:05:19.943Z,12.97
2019-03-22T12:07:49.211Z,13.23
2019-03-22T12:10:22.799Z,13.37
2019-03-22T12:12:52.021Z,13.03
2019-03-22T12:15:24.775Z,13.60
2019-03-22T12:17:54.073Z,12.37
2019-03-22T12:20:24.499Z,12.00
2019-03-22T12:22:53.864Z,11.83
2019-03-22T12:25:25.195Z,12.53
2019-03-22T12:27:54.535Z,14.20
2019-03-22T12:30:23.801Z,13.77
2019-03-22T12:32:53.004Z,14.40
2019-03-22T12:35:22.227Z,12.73
2019-03-22T12:37:51.475Z,12.40
2019-03-22T12:40:22.692Z,12.70
2019-03-22T12:42:52.078Z,12.77
2019-03-22T12:45:29.885Z,12.20
2019-03-22T12:47:59.293Z,11.93
2019-03-22T12:50:28.812Z,13.23
2019-03-22T12:52:58.053Z,12.77
2019-03-22T12:55:27.270Z,12.40
2019-03-22T12:57:56.512Z,12.30
2019-03-22T13:00:26.545Z,13.00
2019-03-22T13:02:55.881Z,13.03
2019-03-22T13:05:25.692Z,14.17
2019-03-22T13:07:54.974Z,13.50
2019-03-22T13:10:29.594Z,13.73
2019-03-22T13:12:58.742Z,14.43
2019-03-22T13:15:27.924Z,13.60
2019-03-22T13:17:57.253Z,13.87
2019-03-22T13:20:26.469Z,14.50
2019-03-22T13:22:55.733Z,14.67
2019-03-22T13:25:24.955Z,14.30
2019-03-22T13:27:54.178Z,14.50
2019-03-22T13:30:38.442Z,14.20
2019-03-22T13:33:07.659Z,13.70
2019-03-22T13:35:36.796Z,13.43
2019-03-22T13:38:07.357Z,12.87
2019-03-22T13:40:36.522Z,12.50
2019-03-22T13:43:06.794Z,12.30
2019-03-22T13:45:36.099Z,13.37
2019-03-22T13:48:05.303Z,13.23
2019-03-22T13:50:34.554Z,13.43
2019-03-22T13:53:04.567Z,13.63
2019-03-22T13:55:33.872Z,13.63
2019-03-22T13:58:03.143Z,13.03
2019-03-22T14:00:32.397Z,12.03
2019-03-22T14:03:02.812Z,11.37
2019-03-22T14:05:32.582Z,11.07
2019-03-22T14:08:01.737Z,11.90
2019-03-22T14:10:32.765Z,11.53
2019-03-22T14:13:03.525Z,11.83
2019-03-22T14:15:32.855Z,11.67
2019-03-22T14:18:02.477Z,11.83
2019-03-22T14:20:31.723Z,10.53
2019-03-22T14:23:00.968Z,12.03
2019-03-22T14:25:30.121Z,11.90
2019-03-22T14:27:59.301Z,12.90
2019-03-22T14:30:28.449Z,12.60
2019-03-22T14:32:57.678Z,12.33
2019-03-22T14:35:28.494Z,11.60
2019-03-22T14:37:58.060Z,13.10
2019-03-22T14:40:27.260Z,12.93
2019-03-22T14:42:56.514Z,12.03
2019-03-22T14:45:26.052Z,11.83
2019-03-22T14:47:55.261Z,11.27
2019-03-22T14:50:24.506Z,11.37
2019-03-22T14:52:53.762Z,11.50
2019-03-22T14:55:22.969Z,11.27
2019-03-22T14:57:52.562Z,11.40
2019-03-22T15:00:22.197Z,9.83
2019-03-22T15:02:51.432Z,10.40
2019-03-22T15:05:20.866Z,10.13
2019-03-22T15:07:50.083Z,11.13
2019-03-22T15:10:19.447Z,11.13
2019-03-22T15:12:49.091Z,12.10
2019-03-22T15:15:34.975Z,11.20
2019-03-22T15:18:09.090Z,12.50
2019-03-22T15:20:56.171Z,11.83
2019-03-22T15:23:32.856Z,11.70
2019-03-22T15:26:09.590Z,11.73
2019-03-22T15:28:43.160Z,12.10
2019-03-22T15:31:30.500Z,11.87
2019-03-22T15:34:17.642Z,11.77
2019-03-22T15:37:05.023Z,11.90
2019-03-22T15:39:45.367Z,11.87
2019-03-22T15:42:14.656Z,11.73
2019-03-22T15:44:43.900Z,11.27
2019-03-22T15:47:13.157Z,11.70
2019-03-22T15:49:42.388Z,11.20
2019-03-22T15:52:11.650Z,11.30
2019-03-22T15:54:40.926Z,11.97
2019-03-22T15:57:10.289Z,11.53
2019-03-22T15:59:39.495Z,11.77
2019-03-22T16:02:09.146Z,11.67
2019-03-22T16:04:38.361Z,10.93
2019-03-22T16:07:07.654Z,9.90
2019-03-22T16:09:36.909Z,11.37
2019-03-22T16:12:06.198Z,10.17
2019-03-22T16:14:35.451Z,10.63
2019-03-22T16:17:04.981Z,10.07
2019-03-22T16:19:34.242Z,10.27
2019-03-22T16:22:03.478Z,9.80
2019-03-22T16:24:32.737Z,10.30
2019-03-22T16:27:03.019Z,9.93
2019-03-22T16:29:32.264Z,11.17
2019-03-22T16:32:01.619Z,11.20
2019-03-22T16:34:30.780Z,11.00
2019-03-22T16:37:00.011Z,13.10
2019-03-22T16:39:29.931Z,12.20
2019-03-22T16:41:59.410Z,12.63
2019-03-22T16:44:28.625Z,13.37
2019-03-22T16:46:57.909Z,13.13
2019-03-22T16:49:27.735Z,13.47
2019-03-22T16:51:56.964Z,13.47
2019-03-22T16:54:26.219Z,12.37
2019-03-22T16:56:55.369Z,13.03
2019-03-22T16:59:24.586Z,12.70
2019-03-22T17:01:53.854Z,12.93
2019-03-22T17:04:23.015Z,13.73
2019-03-22T17:06:52.180Z,12.67
2019-03-22T17:09:21.511Z,14.27
2019-03-22T17:11:50.716Z,14.20
2019-03-22T17:14:21.728Z,14.80
2019-03-22T17:16:51.029Z,14.73
2019-03-22T17:19:20.359Z,15.27
2019-03-22T17:21:49.579Z,15.67
2019-03-22T17:24:19.049Z,15.60
2019-03-22T17:26:48.489Z,40.47
2019-03-22T17:29:17.789Z,23.00
2019-03-22T17:31:46.981Z,16.20
2019-03-22T17:34:16.398Z,16.47
2019-03-22T17:36:45.634Z,15.20
2019-03-22T17:39:14.929Z,15.63
2019-03-22T17:41:44.145Z,16.03
2019-03-22T17:44:13.897Z,16.07
2019-03-22T17:46:43.556Z,15.77
2019-03-22T17:49:12.844Z,15.00
2019-03-22T17:51:42.063Z,15.07
2019-03-22T17:54:11.476Z,15.67
2019-03-22T17:56:40.778Z,15.83
2019-03-22T17:59:10.053Z,15.53
2019-03-22T18:01:39.196Z,14.80
2019-03-22T18:04:08.383Z,15.50
2019-03-22T18:06:37.697Z,14.50
2019-03-22T18:09:07.152Z,15.10
2019-03-22T18:11:36.462Z,15.57
2019-03-22T18:14:06.039Z,15.50
2019-03-22T18:16:35.360Z,14.73
2019-03-22T18:19:04.671Z,15.40
2019-03-22T18:21:33.929Z,14.77
2019-03-22T18:24:03.364Z,14.90
2019-03-22T18:26:32.770Z,15.67
2019-03-22T18:29:01.929Z,15.60
2019-03-22T18:31:31.191Z,15.40
2019-03-22T18:34:00.516Z,14.90
2019-03-22T18:36:29.759Z,14.40
2019-03-22T18:38:59.095Z,14.40
2019-03-22T18:41:28.310Z,14.13
2019-03-22T18:43:57.592Z,13.27
2019-03-22T18:46:26.876Z,13.87
2019-03-22T18:48:56.155Z,12.57
2019-03-22T18:51:25.370Z,13.30
2019-03-22T18:53:55.272Z,160.47
2019-03-22T18:56:24.444Z,97.33
2019-03-22T18:58:53.775Z,46.03
2019-03-22T19:01:23.028Z,25.03
2019-03-22T19:03:52.250Z,17.70
2019-03-22T19:06:21.927Z,15.70
2019-03-22T19:08:51.262Z,15.33
2019-03-22T19:11:20.706Z,15.37
2019-03-22T19:13:49.960Z,14.73
2019-03-22T19:16:19.139Z,14.33
2019-03-22T19:18:48.380Z,16.37
2019-03-22T19:21:17.590Z,18.30
2019-03-22T19:23:46.874Z,16.40
2019-03-22T19:26:16.022Z,14.90
2019-03-22T19:28:45.239Z,14.20
2019-03-22T19:31:14.573Z,14.63
2019-03-22T19:33:43.878Z,16.40
2019-03-22T19:36:13.094Z,16.60
2019-03-22T19:38:42.379Z,14.20
2019-03-22T19:41:11.626Z,15.93
2019-03-22T19:43:40.907Z,14.37
2019-03-22T19:46:10.195Z,24.93
2019-03-22T19:48:39.334Z,23.80
2019-03-22T19:51:08.559Z,30.30
2019-03-22T19:53:37.874Z,49.20
2019-03-22T19:56:07.158Z,55.63
2019-03-22T19:58:36.777Z,75.40
2019-03-22T20:01:06.056Z,71.10
2019-03-22T20:03:35.298Z,86.20
2019-03-22T20:06:04.508Z,86.27
2019-03-22T20:08:33.771Z,80.80
2019-03-22T20:11:03.010Z,81.50
2019-03-22T20:13:32.189Z,86.83
2019-03-22T20:16:01.458Z,72.23
2019-03-22T20:18:30.728Z,61.60
2019-03-22T20:20:59.964Z,65.43
2019-03-22T20:23:29.256Z,89.00
2019-03-22T20:25:58.577Z,83.47
2019-03-22T20:28:27.813Z,58.03
2019-03-22T20:30:57.147Z,52.67
2019-03-22T20:33:26.380Z,51.93
2019-03-22T20:35:55.641Z,81.23
2019-03-22T20:38:24.997Z,79.93
2019-03-22T20:40:54.259Z,64.50
2019-03-22T20:43:23.697Z,59.83
2019-03-22T20:45:53.106Z,54.10
2019-03-22T20:48:22.394Z,63.93
2019-03-22T20:50:51.649Z,60.37
2019-03-22T20:53:21.030Z,58.63
2019-03-22T20:55:50.269Z,53.87
2019-03-22T20:58:19.691Z,56.20
2019-03-22T21:00:49.281Z,57.47
2019-03-22T21:03:18.702Z,55.20
2019-03-22T21:05:48.081Z,52.10
2019-03-22T21:08:17.406Z,53.83
2019-03-22T21:10:46.646Z,67.67
2019-03-22T21:13:15.804Z,61.20
2019-03-22T21:15:45.051Z,61.97
2019-03-22T21:18:14.290Z,61.23
2019-03-22T21:20:43.597Z,50.97
2019-03-22T21:23:12.783Z,48.67
2019-03-22T21:25:42.099Z,44.57
2019-03-22T21:28:11.412Z,47.80
2019-03-22T21:30:40.554Z,49.33
2019-03-22T21:33:09.773Z,57.30
2019-03-22T21:35:39.013Z,54.00
2019-03-22T21:38:11.060Z,62.27
2019-03-22T21:40:39.229Z,46.13
2019-03-22T21:43:08.357Z,53.13
2019-03-22T21:45:37.637Z,57.57
2019-03-22T21:48:06.905Z,75.43
2019-03-22T21:50:36.117Z,62.97
2019-03-22T21:53:05.425Z,61.67
2019-03-22T21:55:34.636Z,58.80
2019-03-22T21:58:03.806Z,53.97
2019-03-22T22:00:33.159Z,60.17
2019-03-22T22:03:02.377Z,56.97
2019-03-22T22:05:31.620Z,52.27
2019-03-22T22:08:00.941Z,53.10
2019-03-22T22:10:30.194Z,54.57
2019-03-22T22:12:59.413Z,54.67
2019-03-22T22:15:28.709Z,56.10
2019-03-22T22:17:57.923Z,54.90
2019-03-22T22:20:29.179Z,51.53
2019-03-22T22:22:58.854Z,53.50
2019-03-22T22:25:28.083Z,57.63
2019-03-22T22:27:57.429Z,58.30
2019-03-22T22:30:26.706Z,54.77
2019-03-22T22:32:55.964Z,56.43
2019-03-22T22:35:25.194Z,60.73
2019-03-22T22:38:12.037Z,63.93
2019-03-22T22:40:41.275Z,51.80
2019-03-22T22:43:10.679Z,63.87
2019-03-22T22:45:40.082Z,56.13
2019-03-22T22:48:09.315Z,50.80
2019-03-22T22:50:38.580Z,56.80
2019-03-22T22:53:07.996Z,53.13
2019-03-22T22:55:38.066Z,51.00
2019-03-22T22:58:07.205Z,48.33
2019-03-22T23:00:36.831Z,48.57
2019-03-22T23:03:06.053Z,56.40
2019-03-22T23:05:35.258Z,61.00
2019-03-22T23:08:04.743Z,57.00
2019-03-22T23:10:34.005Z,54.53
2019-03-22T23:13:03.272Z,57.33
2019-03-22T23:15:32.460Z,51.23
2019-03-22T23:18:01.756Z,50.83
2019-03-22T23:20:30.975Z,54.10
2019-03-22T23:23:00.173Z,51.77
2019-03-22T23:25:29.405Z,48.53
2019-03-22T23:27:58.541Z,53.30
2019-03-22T23:30:28.579Z,49.93
2019-03-22T23:32:57.788Z,50.23
2019-03-22T23:35:27.050Z,58.80
2019-03-22T23:37:56.254Z,58.73
2019-03-22T23:40:25.472Z,60.33
2019-03-22T23:42:54.686Z,57.67
2019-03-22T23:45:23.957Z,62.30
2019-03-22T23:47:53.390Z,59.60
2019-03-22T23:50:22.647Z,60.20
2019-03-22T23:52:51.912Z,55.83
2019-03-22T23:55:21.119Z,57.70
2019-03-22T23:57:50.334Z,62.67
